createdAt,value
2016-08-16T00:00:06.751Z,22.23
2016-08-16T00:01:06.579Z,22.2
2016-08-16T00:02:06.819Z,22.24
2016-08-16T00:03:06.591Z,22.16
2016-08-16T00:04:06.738Z,22.23
2016-08-16T00:05:06.864Z,22.23
2016-08-16T00:06:06.594Z,22.23
2016-08-16T00:07:06.622Z,22.22
2016-08-16T00:08:06.693Z,22.22
2016-08-16T00:09:06.869Z,22.2
2016-08-16T00:10:06.642Z,22.2
2016-08-16T00:11:06.664Z,22.2
2016-08-16T00:12:06.673Z,22.18
2016-08-16T00:13:06.685Z,22.18
2016-08-16T00:14:06.726Z,22.18
2016-08-16T00:15:06.691Z,22.22
2016-08-16T00:16:06.844Z,22.18
2016-08-16T00:17:06.692Z,22.22
2016-08-16T00:18:06.706Z,22.18
2016-08-16T00:19:06.718Z,22.14
2016-08-16T00:20:06.831Z,22.16
2016-08-16T00:21:06.887Z,22.14
2016-08-16T00:22:06.744Z,22.16
2016-08-16T00:23:06.748Z,22.18
2016-08-16T00:24:06.781Z,22.11
2016-08-16T00:25:06.773Z,22.16
2016-08-16T00:26:06.759Z,22.07
2016-08-16T00:27:06.784Z,22.15
2016-08-16T00:28:06.794Z,22.12
2016-08-16T00:29:06.819Z,22.07
2016-08-16T00:30:06.803Z,22.09
2016-08-16T00:31:06.832Z,22.14
2016-08-16T00:32:06.829Z,22.2
2016-08-16T00:33:06.829Z,22.12
2016-08-16T00:34:06.842Z,22.11
2016-08-16T00:35:06.876Z,22.08
2016-08-16T00:36:06.880Z,22.11
2016-08-16T00:37:06.865Z,22.12
2016-08-16T00:38:06.933Z,22.12
2016-08-16T00:39:06.896Z,22.07
2016-08-16T00:40:06.912Z,22.05
2016-08-16T00:41:06.895Z,22.16
2016-08-16T00:42:06.909Z,22.04
2016-08-16T00:43:06.928Z,22.12
2016-08-16T00:44:06.938Z,22.07
2016-08-16T00:45:06.941Z,22.2
2016-08-16T00:46:07.652Z,22.18
2016-08-16T00:47:06.957Z,22.09
2016-08-16T00:48:06.953Z,22.07
2016-08-16T00:49:06.966Z,22.04
2016-08-16T00:50:06.972Z,22.04
2016-08-16T00:51:06.973Z,22.05
2016-08-16T00:52:06.981Z,22.08
2016-08-16T00:53:06.998Z,22.12
2016-08-16T00:54:07.030Z,22.02
2016-08-16T00:55:07.019Z,22.09
2016-08-16T00:56:07.028Z,22.02
2016-08-16T00:57:07.031Z,22.04
2016-08-16T00:58:07.051Z,22.05
2016-08-16T00:59:07.037Z,22.05
2016-08-16T01:00:07.068Z,22.04
2016-08-16T01:01:07.071Z,22.08
2016-08-16T01:02:07.063Z,22.05
2016-08-16T01:03:07.064Z,22.09
2016-08-16T01:04:07.113Z,22.09
2016-08-16T01:05:07.104Z,22.05
2016-08-16T01:06:07.088Z,22.02
2016-08-16T01:07:07.120Z,22.02
2016-08-16T01:08:07.132Z,22.09
2016-08-16T01:09:07.125Z,22.05
2016-08-16T01:10:07.120Z,22.05
2016-08-16T01:11:07.152Z,22.05
2016-08-16T01:12:07.158Z,22.05
2016-08-16T01:13:07.152Z,21.97
2016-08-16T01:14:07.175Z,22.02
2016-08-16T01:15:07.197Z,22.04
2016-08-16T01:16:07.203Z,22
2016-08-16T01:17:07.194Z,21.97
2016-08-16T01:18:07.208Z,22.02
2016-08-16T01:19:07.198Z,22.02
2016-08-16T01:20:07.230Z,21.93
2016-08-16T01:21:07.224Z,21.99
2016-08-16T01:22:07.263Z,22.04
2016-08-16T01:23:07.238Z,21.94
2016-08-16T01:24:07.276Z,21.9
2016-08-16T01:25:07.290Z,21.92
2016-08-16T01:26:07.295Z,21.86
2016-08-16T01:27:07.299Z,22
2016-08-16T01:28:07.302Z,21.97
2016-08-16T01:29:07.310Z,21.97
2016-08-16T01:30:07.314Z,21.93
2016-08-16T01:31:07.307Z,21.86
2016-08-16T01:32:07.331Z,21.86
2016-08-16T01:33:07.346Z,21.97
2016-08-16T01:34:07.365Z,21.99
2016-08-16T01:35:07.346Z,21.94
2016-08-16T01:36:07.350Z,22.02
2016-08-16T01:37:07.361Z,21.99
2016-08-16T01:38:07.684Z,22
2016-08-16T01:39:07.387Z,21.99
2016-08-16T01:40:07.394Z,21.99
2016-08-16T01:41:07.410Z,21.99
2016-08-16T01:42:07.425Z,21.93
2016-08-16T01:43:07.400Z,21.96
2016-08-16T01:44:07.434Z,21.93
2016-08-16T01:45:07.428Z,21.93
2016-08-16T01:46:07.445Z,21.93
2016-08-16T01:47:07.435Z,21.92
2016-08-16T01:48:07.461Z,21.92
2016-08-16T01:49:07.482Z,21.99
2016-08-16T01:50:07.475Z,21.86
2016-08-16T01:51:07.482Z,21.94
2016-08-16T01:52:07.481Z,21.9
2016-08-16T01:53:07.505Z,21.86
2016-08-16T01:54:07.521Z,21.89
2016-08-16T01:55:07.530Z,21.96
2016-08-16T01:56:07.532Z,21.89
2016-08-16T01:57:07.536Z,21.93
2016-08-16T01:58:07.559Z,21.92
2016-08-16T01:59:07.559Z,21.92
2016-08-16T02:00:07.577Z,21.86
2016-08-16T02:01:07.584Z,21.9
2016-08-16T02:02:07.590Z,21.89
2016-08-16T02:03:07.585Z,21.9
2016-08-16T02:04:07.608Z,21.9
2016-08-16T02:05:07.613Z,21.92
2016-08-16T02:06:07.605Z,21.9
2016-08-16T02:07:07.624Z,21.89
2016-08-16T02:08:07.613Z,21.89
2016-08-16T02:09:07.633Z,21.86
2016-08-16T02:10:07.648Z,21.9
2016-08-16T02:11:07.639Z,21.83
2016-08-16T02:12:07.658Z,21.8
2016-08-16T02:13:07.672Z,21.82
2016-08-16T02:14:07.674Z,21.86
2016-08-16T02:15:07.676Z,21.83
2016-08-16T02:16:07.694Z,21.9
2016-08-16T02:17:07.716Z,21.83
2016-08-16T02:18:07.716Z,21.78
2016-08-16T02:19:07.739Z,21.86
2016-08-16T02:20:07.731Z,21.8
2016-08-16T02:21:07.734Z,21.86
2016-08-16T02:22:07.724Z,21.8
2016-08-16T02:23:07.750Z,21.78
2016-08-16T02:24:07.764Z,21.86
2016-08-16T02:25:07.761Z,21.86
2016-08-16T02:26:07.776Z,21.76
2016-08-16T02:27:07.782Z,21.8
2016-08-16T02:28:08.005Z,21.82
2016-08-16T02:29:07.836Z,21.76
2016-08-16T02:30:07.808Z,21.77
2016-08-16T02:31:07.808Z,21.8
2016-08-16T02:32:08.023Z,21.76
2016-08-16T02:33:07.828Z,21.77
2016-08-16T02:34:07.825Z,21.8
2016-08-16T02:35:07.861Z,21.77
2016-08-16T02:36:07.877Z,21.76
2016-08-16T02:37:07.851Z,21.78
2016-08-16T02:38:09.211Z,21.77
2016-08-16T02:39:08.608Z,21.77
2016-08-16T02:40:07.914Z,21.82
2016-08-16T02:41:07.896Z,21.74
2016-08-16T02:42:08.115Z,21.83
2016-08-16T02:43:07.926Z,21.76
2016-08-16T02:44:07.927Z,21.74
2016-08-16T02:45:07.941Z,21.78
2016-08-16T02:46:07.948Z,21.76
2016-08-16T02:47:08.646Z,21.78
2016-08-16T02:48:08.683Z,21.78
2016-08-16T02:49:07.984Z,21.78
2016-08-16T02:50:07.970Z,21.74
2016-08-16T02:51:07.986Z,21.74
2016-08-16T02:52:07.996Z,21.77
2016-08-16T02:53:08.010Z,21.76
2016-08-16T02:54:08.012Z,21.77
2016-08-16T02:55:08.697Z,21.77
2016-08-16T02:56:08.021Z,21.76
2016-08-16T02:57:08.021Z,21.74
2016-08-16T02:58:08.048Z,21.73
2016-08-16T02:59:08.030Z,21.77
2016-08-16T03:00:08.063Z,21.74
2016-08-16T03:01:08.067Z,21.74
2016-08-16T03:02:08.781Z,21.71
2016-08-16T03:03:08.094Z,21.73
2016-08-16T03:04:08.092Z,21.73
2016-08-16T03:05:08.105Z,21.76
2016-08-16T03:06:08.115Z,21.8
2016-08-16T03:07:08.134Z,21.74
2016-08-16T03:08:08.112Z,21.76
2016-08-16T03:09:08.158Z,21.66
2016-08-16T03:10:08.150Z,21.67
2016-08-16T03:11:08.151Z,21.68
2016-08-16T03:12:08.150Z,21.67
2016-08-16T03:13:08.876Z,21.66
2016-08-16T03:14:08.189Z,21.67
2016-08-16T03:15:08.168Z,21.64
2016-08-16T03:16:08.175Z,21.66
2016-08-16T03:17:08.224Z,21.67
2016-08-16T03:18:08.189Z,21.62
2016-08-16T03:19:08.232Z,21.67
2016-08-16T03:20:08.220Z,21.66
2016-08-16T03:21:08.224Z,21.73
2016-08-16T03:22:08.254Z,21.66
2016-08-16T03:23:08.246Z,21.66
2016-08-16T03:24:09.353Z,21.64
2016-08-16T03:25:08.264Z,21.67
2016-08-16T03:26:08.286Z,21.64
2016-08-16T03:27:08.282Z,21.62
2016-08-16T03:28:08.294Z,21.66
2016-08-16T03:29:08.295Z,21.71
2016-08-16T03:30:08.305Z,21.7
2016-08-16T03:31:09.711Z,21.64
2016-08-16T03:32:08.312Z,21.71
2016-08-16T03:33:08.331Z,21.61
2016-08-16T03:34:08.340Z,21.73
2016-08-16T03:35:08.339Z,21.67
2016-08-16T03:36:08.357Z,21.68
2016-08-16T03:37:08.354Z,21.67
2016-08-16T03:38:08.377Z,21.7
2016-08-16T03:39:08.375Z,21.67
2016-08-16T03:40:08.375Z,21.62
2016-08-16T03:41:08.408Z,21.58
2016-08-16T03:42:08.416Z,21.71
2016-08-16T03:43:08.422Z,21.64
2016-08-16T03:44:08.417Z,21.61
2016-08-16T03:45:08.428Z,21.64
2016-08-16T03:46:08.454Z,21.68
2016-08-16T03:47:08.429Z,21.73
2016-08-16T03:48:08.462Z,21.62
2016-08-16T03:49:08.454Z,21.66
2016-08-16T03:50:08.455Z,21.64
2016-08-16T03:51:08.479Z,21.73
2016-08-16T03:52:08.473Z,21.67
2016-08-16T03:53:08.503Z,21.64
2016-08-16T03:54:08.500Z,21.62
2016-08-16T03:55:08.506Z,21.62
2016-08-16T03:56:08.513Z,21.66
2016-08-16T03:57:08.538Z,21.59
2016-08-16T03:58:08.840Z,21.64
2016-08-16T03:59:08.538Z,21.68
2016-08-16T04:00:08.556Z,21.66
2016-08-16T04:01:08.553Z,21.66
2016-08-16T04:02:08.544Z,21.64
2016-08-16T04:03:08.565Z,21.66
2016-08-16T04:04:08.578Z,21.64
2016-08-16T04:05:08.602Z,21.61
2016-08-16T04:06:08.604Z,21.62
2016-08-16T04:07:08.623Z,21.61
2016-08-16T04:08:08.627Z,21.64
2016-08-16T04:09:08.613Z,21.68
2016-08-16T04:10:10.152Z,21.66
2016-08-16T04:11:08.646Z,21.62
2016-08-16T04:12:09.347Z,21.64
2016-08-16T04:13:09.739Z,21.66
2016-08-16T04:14:08.671Z,21.71
2016-08-16T04:15:08.672Z,21.62
2016-08-16T04:16:08.684Z,21.67
2016-08-16T04:17:08.719Z,21.58
2016-08-16T04:18:08.713Z,21.61
2016-08-16T04:19:08.690Z,21.64
2016-08-16T04:20:08.724Z,21.66
2016-08-16T04:21:08.730Z,21.66
2016-08-16T04:22:08.729Z,21.7
2016-08-16T04:23:08.727Z,21.61
2016-08-16T04:24:08.751Z,21.62
2016-08-16T04:25:08.738Z,21.61
2016-08-16T04:26:08.773Z,21.66
2016-08-16T04:27:08.753Z,21.58
2016-08-16T04:28:08.795Z,21.62
2016-08-16T04:29:08.798Z,21.64
2016-08-16T04:30:08.780Z,21.66
2016-08-16T04:31:08.802Z,21.59
2016-08-16T04:32:08.805Z,21.55
2016-08-16T04:33:08.808Z,21.61
2016-08-16T04:34:08.828Z,21.64
2016-08-16T04:35:08.841Z,21.64
2016-08-16T04:36:08.859Z,21.64
2016-08-16T04:37:08.862Z,21.64
2016-08-16T04:38:08.860Z,21.61
2016-08-16T04:39:08.882Z,21.68
2016-08-16T04:40:08.872Z,21.61
2016-08-16T04:41:08.880Z,21.61
2016-08-16T04:42:08.891Z,21.66
2016-08-16T04:43:08.887Z,21.62
2016-08-16T04:44:08.917Z,21.59
2016-08-16T04:45:08.933Z,21.58
2016-08-16T04:46:08.914Z,21.62
2016-08-16T04:47:08.935Z,21.66
2016-08-16T04:48:08.964Z,21.61
2016-08-16T04:49:08.950Z,21.66
2016-08-16T04:50:08.950Z,21.62
2016-08-16T04:51:08.970Z,21.61
2016-08-16T04:52:08.963Z,21.62
2016-08-16T04:53:08.982Z,21.56
2016-08-16T04:54:08.973Z,21.62
2016-08-16T04:55:09.005Z,21.64
2016-08-16T04:56:09.016Z,21.61
2016-08-16T04:57:09.004Z,21.58
2016-08-16T04:58:09.032Z,21.64
2016-08-16T04:59:09.033Z,21.66
2016-08-16T05:00:09.035Z,21.61
2016-08-16T05:01:09.053Z,21.68
2016-08-16T05:02:09.046Z,21.68
2016-08-16T05:03:09.046Z,21.68
2016-08-16T05:04:09.071Z,21.74
2016-08-16T05:05:09.096Z,21.67
2016-08-16T05:06:09.096Z,21.7
2016-08-16T05:07:09.092Z,21.59
2016-08-16T05:08:09.081Z,21.59
2016-08-16T05:09:09.106Z,21.67
2016-08-16T05:10:09.135Z,21.68
2016-08-16T05:11:09.146Z,21.61
2016-08-16T05:12:09.138Z,21.59
2016-08-16T05:13:09.157Z,21.62
2016-08-16T05:14:09.134Z,21.58
2016-08-16T05:15:09.156Z,21.68
2016-08-16T05:16:09.188Z,21.61
2016-08-16T05:17:09.182Z,21.67
2016-08-16T05:18:09.187Z,21.7
2016-08-16T05:19:09.198Z,21.67
2016-08-16T05:20:09.210Z,21.64
2016-08-16T05:21:09.208Z,21.66
2016-08-16T05:22:09.223Z,21.71
2016-08-16T05:23:09.245Z,21.62
2016-08-16T05:24:09.239Z,21.64
2016-08-16T05:25:09.235Z,21.64
2016-08-16T05:26:09.253Z,21.61
2016-08-16T05:27:09.255Z,21.7
2016-08-16T05:28:09.256Z,21.71
2016-08-16T05:29:09.290Z,21.66
2016-08-16T05:30:09.278Z,21.71
2016-08-16T05:31:09.281Z,21.67
2016-08-16T05:32:09.292Z,21.64
2016-08-16T05:33:09.301Z,21.66
2016-08-16T05:34:09.313Z,21.68
2016-08-16T05:35:09.330Z,21.67
2016-08-16T05:36:09.314Z,21.67
2016-08-16T05:37:09.362Z,21.68
2016-08-16T05:38:09.350Z,21.73
2016-08-16T05:39:09.468Z,21.68
2016-08-16T05:40:09.375Z,21.7
2016-08-16T05:41:10.087Z,21.67
2016-08-16T05:42:09.397Z,21.7
2016-08-16T05:43:09.405Z,21.62
2016-08-16T05:44:09.419Z,21.64
2016-08-16T05:45:09.409Z,21.74
2016-08-16T05:46:09.423Z,21.66
2016-08-16T05:47:09.442Z,21.68
2016-08-16T05:48:09.430Z,21.7
2016-08-16T05:49:09.427Z,21.7
2016-08-16T05:50:09.457Z,21.74
2016-08-16T05:51:09.454Z,21.7
2016-08-16T05:52:09.476Z,21.7
2016-08-16T05:53:09.487Z,21.66
2016-08-16T05:54:09.487Z,21.67
2016-08-16T05:55:09.496Z,21.73
2016-08-16T05:56:09.514Z,21.66
2016-08-16T05:57:09.509Z,21.67
2016-08-16T05:58:09.516Z,21.7
2016-08-16T05:59:09.529Z,21.66
2016-08-16T06:00:09.555Z,21.77
2016-08-16T06:01:10.224Z,21.66
2016-08-16T06:02:09.551Z,21.7
2016-08-16T06:03:09.541Z,21.77
2016-08-16T06:04:09.569Z,21.74
2016-08-16T06:05:09.595Z,21.78
2016-08-16T06:06:09.567Z,21.7
2016-08-16T06:07:09.601Z,21.77
2016-08-16T06:08:09.597Z,21.74
2016-08-16T06:09:09.615Z,21.67
2016-08-16T06:10:09.603Z,21.78
2016-08-16T06:11:09.615Z,21.77
2016-08-16T06:12:09.626Z,21.7
2016-08-16T06:13:09.634Z,21.71
2016-08-16T06:14:09.629Z,21.73
2016-08-16T06:15:10.369Z,21.76
2016-08-16T06:16:09.668Z,21.76
2016-08-16T06:17:09.671Z,21.7
2016-08-16T06:18:09.693Z,21.78
2016-08-16T06:19:09.696Z,21.74
2016-08-16T06:20:09.710Z,21.71
2016-08-16T06:21:09.700Z,21.73
2016-08-16T06:22:09.726Z,21.78
2016-08-16T06:23:09.736Z,21.74
2016-08-16T06:24:09.742Z,21.76
2016-08-16T06:25:09.742Z,21.8
2016-08-16T06:26:09.760Z,21.78
2016-08-16T06:27:09.785Z,21.82
2016-08-16T06:28:09.743Z,21.74
2016-08-16T06:29:09.765Z,21.77
2016-08-16T06:30:09.763Z,21.8
2016-08-16T06:31:09.796Z,21.8
2016-08-16T06:32:09.800Z,21.76
2016-08-16T06:33:09.820Z,21.78
2016-08-16T06:34:09.813Z,21.76
2016-08-16T06:35:09.838Z,21.8
2016-08-16T06:36:09.838Z,21.78
2016-08-16T06:37:09.831Z,21.78
2016-08-16T06:38:09.833Z,21.78
2016-08-16T06:39:09.950Z,21.8
2016-08-16T06:40:09.844Z,21.78
2016-08-16T06:41:09.867Z,21.82
2016-08-16T06:42:09.879Z,21.78
2016-08-16T06:43:09.864Z,21.78
2016-08-16T06:44:09.895Z,21.83
2016-08-16T06:45:09.886Z,21.77
2016-08-16T06:46:09.921Z,21.77
2016-08-16T06:47:09.927Z,21.85
2016-08-16T06:48:09.923Z,21.76
2016-08-16T06:49:09.948Z,21.8
2016-08-16T06:50:09.967Z,21.82
2016-08-16T06:51:09.974Z,21.85
2016-08-16T06:52:09.962Z,21.83
2016-08-16T06:53:09.964Z,21.85
2016-08-16T06:54:09.979Z,21.78
2016-08-16T06:55:09.989Z,21.85
2016-08-16T06:56:09.996Z,21.77
2016-08-16T06:57:10.007Z,21.86
2016-08-16T06:58:10.011Z,21.82
2016-08-16T06:59:10.023Z,21.85
2016-08-16T07:00:10.025Z,21.83
2016-08-16T07:01:10.037Z,21.94
2016-08-16T07:02:10.053Z,21.92
2016-08-16T07:03:10.033Z,21.89
2016-08-16T07:04:10.056Z,21.92
2016-08-16T07:05:10.069Z,21.96
2016-08-16T07:06:10.091Z,21.94
2016-08-16T07:07:10.071Z,21.97
2016-08-16T07:08:10.084Z,22.02
2016-08-16T07:09:10.108Z,21.94
2016-08-16T07:10:10.091Z,21.99
2016-08-16T07:11:10.135Z,21.93
2016-08-16T07:12:10.130Z,21.96
2016-08-16T07:13:10.140Z,21.89
2016-08-16T07:14:10.158Z,21.99
2016-08-16T07:15:10.152Z,21.9
2016-08-16T07:16:10.165Z,22
2016-08-16T07:17:10.146Z,22.02
2016-08-16T07:18:10.176Z,21.89
2016-08-16T07:19:10.206Z,22.04
2016-08-16T07:20:10.189Z,21.96
2016-08-16T07:21:10.207Z,22.02
2016-08-16T07:22:10.220Z,22.04
2016-08-16T07:23:10.220Z,22.02
2016-08-16T07:24:10.244Z,21.96
2016-08-16T07:25:10.215Z,21.92
2016-08-16T07:26:10.262Z,22.07
2016-08-16T07:27:10.275Z,22.02
2016-08-16T07:28:10.263Z,22.04
2016-08-16T07:29:10.276Z,22.11
2016-08-16T07:30:10.279Z,22.11
2016-08-16T07:31:10.285Z,22.15
2016-08-16T07:32:10.289Z,22.05
2016-08-16T07:33:10.318Z,22.08
2016-08-16T07:34:10.304Z,22.14
2016-08-16T07:35:10.318Z,22.11
2016-08-16T07:36:11.001Z,22.16
2016-08-16T07:37:10.325Z,22.16
2016-08-16T07:38:10.343Z,22.22
2016-08-16T07:39:10.535Z,22.24
2016-08-16T07:40:10.368Z,22.18
2016-08-16T07:41:10.350Z,22.23
2016-08-16T07:42:10.373Z,22.18
2016-08-16T07:43:10.396Z,22.2
2016-08-16T07:44:10.402Z,22.26
2016-08-16T07:45:10.406Z,22.2
2016-08-16T07:46:10.424Z,22.15
2016-08-16T07:47:10.408Z,22.27
2016-08-16T07:48:10.419Z,22.15
2016-08-16T07:49:10.431Z,22.3
2016-08-16T07:50:10.451Z,22.18
2016-08-16T07:51:10.437Z,22.2
2016-08-16T07:52:10.464Z,22.33
2016-08-16T07:53:10.447Z,22.23
2016-08-16T07:54:10.470Z,22.22
2016-08-16T07:55:10.484Z,22.23
2016-08-16T07:56:10.489Z,22.36
2016-08-16T07:57:10.566Z,22.34
2016-08-16T07:58:10.523Z,22.34
2016-08-16T07:59:10.528Z,22.39
2016-08-16T08:00:10.532Z,22.38
2016-08-16T08:01:10.541Z,22.39
2016-08-16T08:02:10.566Z,22.41
2016-08-16T08:03:10.554Z,22.44
2016-08-16T08:04:10.553Z,22.34
2016-08-16T08:05:11.274Z,22.44
2016-08-16T08:06:10.567Z,22.42
2016-08-16T08:07:10.593Z,22.41
2016-08-16T08:08:10.623Z,22.46
2016-08-16T08:09:10.601Z,22.42
2016-08-16T08:10:10.614Z,22.52
2016-08-16T08:11:10.613Z,22.48
2016-08-16T08:12:11.323Z,22.54
2016-08-16T08:13:10.651Z,22.59
2016-08-16T08:14:10.648Z,22.6
2016-08-16T08:15:10.671Z,22.55
2016-08-16T08:16:10.686Z,22.6
2016-08-16T08:17:10.670Z,22.59
2016-08-16T08:18:10.681Z,22.54
2016-08-16T08:19:10.709Z,22.61
2016-08-16T08:20:10.703Z,22.64
2016-08-16T08:21:10.710Z,22.6
2016-08-16T08:22:10.731Z,22.59
2016-08-16T08:23:10.710Z,22.59
2016-08-16T08:24:10.726Z,22.69
2016-08-16T08:25:10.759Z,22.73
2016-08-16T08:26:10.758Z,22.7
2016-08-16T08:27:10.775Z,22.71
2016-08-16T08:28:10.750Z,22.66
2016-08-16T08:29:10.778Z,22.67
2016-08-16T08:30:10.789Z,22.76
2016-08-16T08:31:10.799Z,22.81
2016-08-16T08:32:10.808Z,22.7
2016-08-16T08:33:10.826Z,22.73
2016-08-16T08:34:10.818Z,22.7
2016-08-16T08:35:10.829Z,22.69
2016-08-16T08:36:10.835Z,22.67
2016-08-16T08:37:10.830Z,22.69
2016-08-16T08:38:10.881Z,22.78
2016-08-16T08:39:11.067Z,22.69
2016-08-16T08:40:10.873Z,22.85
2016-08-16T08:41:10.888Z,22.84
2016-08-16T08:42:10.873Z,22.82
2016-08-16T08:43:10.903Z,22.82
2016-08-16T08:44:10.901Z,22.92
2016-08-16T08:45:10.919Z,22.91
2016-08-16T08:46:10.939Z,22.89
2016-08-16T08:47:10.930Z,22.89
2016-08-16T08:48:10.954Z,22.97
2016-08-16T08:49:10.965Z,22.91
2016-08-16T08:50:10.947Z,22.94
2016-08-16T08:51:10.949Z,22.96
2016-08-16T08:52:10.982Z,22.94
2016-08-16T08:53:11.007Z,22.96
2016-08-16T08:54:11.005Z,22.96
2016-08-16T08:55:11.025Z,22.96
2016-08-16T08:56:11.031Z,22.99
2016-08-16T08:57:11.010Z,22.91
2016-08-16T08:58:11.029Z,22.97
2016-08-16T08:59:11.047Z,22.99
2016-08-16T09:00:11.032Z,23.06
2016-08-16T09:01:11.055Z,23.09
2016-08-16T09:02:11.062Z,23.01
2016-08-16T09:03:11.084Z,23.01
2016-08-16T09:04:11.072Z,23.01
2016-08-16T09:05:11.085Z,23.06
2016-08-16T09:06:11.092Z,23.07
2016-08-16T09:07:11.123Z,23.07
2016-08-16T09:08:11.109Z,23.1
2016-08-16T09:09:11.126Z,23.06
2016-08-16T09:10:11.130Z,23.06
2016-08-16T09:11:11.130Z,23.15
2016-08-16T09:12:11.185Z,23.09
2016-08-16T09:13:11.184Z,23.16
2016-08-16T09:14:11.158Z,23.14
2016-08-16T09:15:11.179Z,23.16
2016-08-16T09:16:11.207Z,23.19
2016-08-16T09:17:11.198Z,23.12
2016-08-16T09:18:11.211Z,23.32
2016-08-16T09:19:11.219Z,23.16
2016-08-16T09:20:11.231Z,23.26
2016-08-16T09:21:11.222Z,23.28
2016-08-16T09:22:11.255Z,23.28
2016-08-16T09:23:11.262Z,23.26
2016-08-16T09:24:11.270Z,23.32
2016-08-16T09:25:11.259Z,23.29
2016-08-16T09:26:11.277Z,23.32
2016-08-16T09:27:11.286Z,23.37
2016-08-16T09:28:11.304Z,23.37
2016-08-16T09:29:12.009Z,23.34
2016-08-16T09:30:11.315Z,23.34
2016-08-16T09:31:11.333Z,23.37
2016-08-16T09:32:11.361Z,23.41
2016-08-16T09:33:11.355Z,23.41
2016-08-16T09:34:11.354Z,23.38
2016-08-16T09:35:11.369Z,23.38
2016-08-16T09:36:11.365Z,23.5
2016-08-16T09:37:11.365Z,23.55
2016-08-16T09:38:11.384Z,23.53
2016-08-16T09:39:11.440Z,23.48
2016-08-16T09:40:11.398Z,23.53
2016-08-16T09:41:11.426Z,23.52
2016-08-16T09:42:11.424Z,23.5
2016-08-16T09:43:11.457Z,23.42
2016-08-16T09:44:11.456Z,23.52
2016-08-16T09:45:11.456Z,23.45
2016-08-16T09:46:11.447Z,23.52
2016-08-16T09:47:11.500Z,23.52
2016-08-16T09:48:11.478Z,23.56
2016-08-16T09:49:11.492Z,23.56
2016-08-16T09:50:11.518Z,23.55
2016-08-16T09:51:12.222Z,23.53
2016-08-16T09:52:11.518Z,23.6
2016-08-16T09:53:11.519Z,23.62
2016-08-16T09:54:11.528Z,23.64
2016-08-16T09:55:11.532Z,23.66
2016-08-16T09:56:11.579Z,23.66
2016-08-16T09:57:11.575Z,23.64
2016-08-16T09:58:11.572Z,23.67
2016-08-16T09:59:11.572Z,23.64
2016-08-16T10:00:11.605Z,23.7
2016-08-16T10:01:11.598Z,23.72
2016-08-16T10:02:11.603Z,23.64
2016-08-16T10:03:11.635Z,23.77
2016-08-16T10:04:11.646Z,23.75
2016-08-16T10:05:11.623Z,23.78
2016-08-16T10:06:11.644Z,23.78
2016-08-16T10:07:11.670Z,23.74
2016-08-16T10:08:11.662Z,23.79
2016-08-16T10:09:11.669Z,23.85
2016-08-16T10:10:11.698Z,23.79
2016-08-16T10:11:11.702Z,23.82
2016-08-16T10:12:11.697Z,23.85
2016-08-16T10:13:11.711Z,23.85
2016-08-16T10:14:11.726Z,23.89
2016-08-16T10:15:11.732Z,23.89
2016-08-16T10:16:11.725Z,23.87
2016-08-16T10:17:11.757Z,23.9
2016-08-16T10:18:11.730Z,23.9
2016-08-16T10:19:11.779Z,23.94
2016-08-16T10:20:11.763Z,23.93
2016-08-16T10:21:11.765Z,23.84
2016-08-16T10:22:11.785Z,24.08
2016-08-16T10:23:11.803Z,24.07
2016-08-16T10:24:11.794Z,24.07
2016-08-16T10:25:11.831Z,24.09
2016-08-16T10:26:11.810Z,24.02
2016-08-16T10:27:11.874Z,24.15
2016-08-16T10:28:11.861Z,24.24
2016-08-16T10:29:11.847Z,24.17
2016-08-16T10:30:11.845Z,24.22
2016-08-16T10:31:11.874Z,24.19
2016-08-16T10:32:11.902Z,24.26
2016-08-16T10:33:11.881Z,24.22
2016-08-16T10:34:11.919Z,24.26
2016-08-16T10:35:11.915Z,24.22
2016-08-16T10:36:11.898Z,24.18
2016-08-16T10:37:12.634Z,24.18
2016-08-16T10:38:12.618Z,24.26
2016-08-16T10:39:11.946Z,24.17
2016-08-16T10:40:11.952Z,24.14
2016-08-16T10:41:11.955Z,24.3
2016-08-16T10:42:11.967Z,24.29
2016-08-16T10:43:11.971Z,24.29
2016-08-16T10:44:11.972Z,24.26
2016-08-16T10:45:12.006Z,24.24
2016-08-16T10:46:12.002Z,24.22
2016-08-16T10:47:12.007Z,24.26
2016-08-16T10:48:12.031Z,24.17
2016-08-16T10:49:12.019Z,24.22
2016-08-16T10:50:12.040Z,24.3
2016-08-16T10:51:12.075Z,24.22
2016-08-16T10:52:12.043Z,24.24
2016-08-16T10:53:12.089Z,24.27
2016-08-16T10:54:12.088Z,24.24
2016-08-16T10:55:12.108Z,24.26
2016-08-16T10:56:12.104Z,24.24
2016-08-16T10:57:12.134Z,24.32
2016-08-16T10:58:12.125Z,24.3
2016-08-16T10:59:12.119Z,24.3
2016-08-16T11:00:12.160Z,24.3
2016-08-16T11:01:12.170Z,24.4
2016-08-16T11:02:12.164Z,24.37
2016-08-16T11:03:12.185Z,24.42
2016-08-16T11:04:12.176Z,24.4
2016-08-16T11:05:12.866Z,24.36
2016-08-16T11:06:12.198Z,24.42
2016-08-16T11:07:12.194Z,24.44
2016-08-16T11:08:12.231Z,24.49
2016-08-16T11:09:12.229Z,24.49
2016-08-16T11:10:12.228Z,24.42
2016-08-16T11:11:12.261Z,24.45
2016-08-16T11:12:12.254Z,24.56
2016-08-16T11:13:12.258Z,24.56
2016-08-16T11:14:12.287Z,24.52
2016-08-16T11:15:12.308Z,24.59
2016-08-16T11:16:12.295Z,24.64
2016-08-16T11:17:12.300Z,24.55
2016-08-16T11:18:12.314Z,24.59
2016-08-16T11:19:12.326Z,24.59
2016-08-16T11:20:12.329Z,24.58
2016-08-16T11:21:12.320Z,24.56
2016-08-16T11:22:12.340Z,24.69
2016-08-16T11:23:12.365Z,24.75
2016-08-16T11:24:12.372Z,24.63
2016-08-16T11:25:12.360Z,24.74
2016-08-16T11:26:12.385Z,24.7
2016-08-16T11:27:12.412Z,24.71
2016-08-16T11:28:12.398Z,24.77
2016-08-16T11:29:12.422Z,24.75
2016-08-16T11:30:12.498Z,24.71
2016-08-16T11:31:12.436Z,24.71
2016-08-16T11:32:12.438Z,24.8
2016-08-16T11:33:12.439Z,24.85
2016-08-16T11:34:12.440Z,24.74
2016-08-16T11:35:12.469Z,24.75
2016-08-16T11:36:12.469Z,24.82
2016-08-16T11:37:12.493Z,24.78
2016-08-16T11:38:12.500Z,24.77
2016-08-16T11:39:12.508Z,24.86
2016-08-16T11:40:12.525Z,24.85
2016-08-16T11:41:12.497Z,24.78
2016-08-16T11:42:12.531Z,24.83
2016-08-16T11:43:12.531Z,24.77
2016-08-16T11:44:12.575Z,24.86
2016-08-16T11:45:12.550Z,24.89
2016-08-16T11:46:12.563Z,24.96
2016-08-16T11:47:12.579Z,24.89
2016-08-16T11:48:12.574Z,24.93
2016-08-16T11:49:12.607Z,24.92
2016-08-16T11:50:12.621Z,24.87
2016-08-16T11:51:12.606Z,24.78
2016-08-16T11:52:12.634Z,24.77
2016-08-16T11:53:12.634Z,24.83
2016-08-16T11:54:12.647Z,24.86
2016-08-16T11:55:12.660Z,24.7
2016-08-16T11:56:12.671Z,24.85
2016-08-16T11:57:12.690Z,24.77
2016-08-16T11:58:12.699Z,24.71
2016-08-16T11:59:12.707Z,24.8
2016-08-16T12:00:12.701Z,24.83
2016-08-16T12:01:12.716Z,24.8
2016-08-16T12:02:12.737Z,24.75
2016-08-16T12:03:12.719Z,24.85
2016-08-16T12:04:12.744Z,24.78
2016-08-16T12:05:12.754Z,24.9
2016-08-16T12:06:12.752Z,24.9
2016-08-16T12:07:12.765Z,25
2016-08-16T12:08:12.784Z,24.92
2016-08-16T12:09:12.810Z,24.94
2016-08-16T12:10:12.822Z,24.9
2016-08-16T12:11:12.800Z,24.94
2016-08-16T12:12:12.829Z,24.93
2016-08-16T12:13:12.832Z,25.02
2016-08-16T12:14:12.845Z,25.02
2016-08-16T12:15:12.841Z,25.05
2016-08-16T12:16:12.837Z,24.94
2016-08-16T12:17:13.569Z,25
2016-08-16T12:18:12.877Z,24.96
2016-08-16T12:19:12.886Z,25.01
2016-08-16T12:20:12.902Z,25.01
2016-08-16T12:21:12.922Z,25.02
2016-08-16T12:22:12.912Z,25.11
2016-08-16T12:23:12.937Z,25.05
2016-08-16T12:24:12.925Z,25.07
2016-08-16T12:25:12.948Z,25.19
2016-08-16T12:26:12.946Z,25.08
2016-08-16T12:27:12.974Z,25.14
2016-08-16T12:28:12.978Z,25.08
2016-08-16T12:29:12.988Z,25.05
2016-08-16T12:30:12.976Z,25.09
2016-08-16T12:31:13.000Z,25.14
2016-08-16T12:32:13.016Z,25.14
2016-08-16T12:33:13.010Z,25.09
2016-08-16T12:34:13.039Z,25.08
2016-08-16T12:35:13.062Z,25.08
2016-08-16T12:36:13.053Z,25.07
2016-08-16T12:37:13.038Z,25.12
2016-08-16T12:38:13.068Z,25.12
2016-08-16T12:39:13.082Z,25
2016-08-16T12:40:13.079Z,25.09
2016-08-16T12:41:13.087Z,25.02
2016-08-16T12:42:13.091Z,25.23
2016-08-16T12:43:13.120Z,25.15
2016-08-16T12:44:13.144Z,25.09
2016-08-16T12:45:13.137Z,25.07
2016-08-16T12:46:13.146Z,25.22
2016-08-16T12:47:13.187Z,25.11
2016-08-16T12:48:13.171Z,25.14
2016-08-16T12:49:13.175Z,25.22
2016-08-16T12:50:13.168Z,25.09
2016-08-16T12:51:13.182Z,25.09
2016-08-16T12:52:13.191Z,25.11
2016-08-16T12:53:13.218Z,25.12
2016-08-16T12:54:13.229Z,25.07
2016-08-16T12:55:13.225Z,25.08